Time,TemperatureF,DewpointF,PressureIn,WindDirection,WindDirectionDegrees,WindSpeedMPH,WindSpeedGustMPH,Humidity,HourlyPrecipIn,Conditions,Clouds,dailyrainin,SoftwareType,DateUTC
2013-09-16 17:30:00,63.4,50.5,30.07,NNW,338,0.4,0.4,63,0.00,,,0.00,WUHU216HW,2013-09-16 21:30:00,
2013-09-16 17:31:00,63.4,50.5,30.07,NNW,338,0.0,0.4,63,0.00,,,0.00,WUHU216HW,2013-09-16 21:31:00,
2013-09-16 17:36:00,63.4,48.8,30.07,NNW,338,2.0,5.1,59,0.00,,,0.00,WUHU216HW,2013-09-16 21:36:00,
2013-09-16 17:41:00,63.4,48.2,30.07,North,0,1.1,5.1,58,0.00,,,0.00,WUHU216HW,2013-09-16 21:41:00,
2013-09-16 17:46:00,63.4,48.2,30.07,NNE,23,1.3,2.2,58,0.00,,,0.00,WUHU216HW,2013-09-16 21:46:00,
2013-09-16 17:51:00,63.4,48.8,30.07,NW,315,1.1,2.7,59,0.00,,,0.00,WUHU216HW,2013-09-16 21:51:00,
2013-09-16 17:56:00,63.7,48.6,30.07,NW,315,0.4,2.9,58,0.00,,,0.00,WUHU216HW,2013-09-16 21:56:00,
2013-09-16 18:01:00,64.1,49.0,30.08,NNE,23,1.6,2.9,58,0.00,,,0.00,WUHU216HW,2013-09-16 22:01:00,
2013-09-16 18:06:00,64.3,49.1,30.08,West,270,0.4,1.8,58,0.00,,,0.00,WUHU216HW,2013-09-16 22:06:00,
2013-09-16 18:11:00,63.7,49.1,30.08,SW,225,3.4,3.4,59,0.00,,,0.00,WUHU216HW,2013-09-16 22:11:00,
2013-09-16 18:16:00,63.0,49.0,30.09,West,270,0.4,3.4,60,0.00,,,0.00,WUHU216HW,2013-09-16 22:16:00,
2013-09-16 18:21:00,61.9,49.2,30.08,North,0,2.0,2.9,63,0.00,,,0.00,WUHU216HW,2013-09-16 22:21:00,
2013-09-16 18:26:00,61.6,48.9,30.09,NW,315,2.2,5.4,63,0.00,,,0.00,WUHU216HW,2013-09-16 22:26:00,
2013-09-16 18:31:00,61.0,48.8,30.09,WNW,293,0.9,5.4,64,0.00,,,0.00,WUHU216HW,2013-09-16 22:31:00,
2013-09-16 18:36:00,60.5,48.7,30.09,South,180,1.6,3.8,65,0.00,,,0.00,WUHU216HW,2013-09-16 22:36:00,
2013-09-16 18:41:00,60.3,48.5,30.09,WNW,293,1.1,3.8,65,0.00,,,0.00,WUHU216HW,2013-09-16 22:41:00,
2013-09-16 18:46:00,59.9,48.6,30.10,NW,315,0.0,1.6,66,0.00,,,0.00,WUHU216HW,2013-09-16 22:46:00,
2013-09-16 18:51:00,59.6,48.3,30.10,NW,315,0.4,1.6,66,0.00,,,0.00,WUHU216HW,2013-09-16 22:51:00,
2013-09-16 18:56:00,59.2,47.4,30.10,WNW,293,0.4,2.5,65,0.00,,,0.00,WUHU216HW,2013-09-16 22:56:00,
2013-09-16 19:01:00,58.9,47.1,30.11,NNW,338,1.3,2.5,65,0.00,,,0.00,WUHU216HW,2013-09-16 23:01:00,
2013-09-16 19:06:00,58.7,47.4,30.11,WSW,248,0.2,2.2,66,0.00,,,0.00,WUHU216HW,2013-09-16 23:06:00,
2013-09-16 19:11:00,58.3,47.0,30.11,NNW,338,3.1,3.1,66,0.00,,,0.00,WUHU216HW,2013-09-16 23:11:00,
2013-09-16 19:16:00,58.0,46.6,30.11,NW,315,0.7,3.1,66,0.00,,,0.00,WUHU216HW,2013-09-16 23:16:00,
2013-09-16 19:21:00,57.8,46.4,30.12,ESE,113,1.1,4.0,66,0.00,,,0.00,WUHU216HW,2013-09-16 23:21:00,
2013-09-16 19:26:00,57.4,46.5,30.12,WNW,293,0.4,4.0,67,0.00,,,0.00,WUHU216HW,2013-09-16 23:26:00,
2013-09-16 19:31:00,57.2,46.4,30.12,WNW,293,0.9,1.8,67,0.00,,,0.00,WUHU216HW,2013-09-16 23:31:00,
2013-09-16 19:36:00,56.9,46.5,30.12,WNW,293,1.1,2.9,68,0.00,,,0.00,WUHU216HW,2013-09-16 23:36:00,
2013-09-16 19:41:00,56.5,46.4,30.12,West,270,0.2,2.9,69,0.00,,,0.00,WUHU216HW,2013-09-16 23:41:00,
2013-09-16 19:46:00,56.0,46.0,30.13,NE,45,1.8,2.5,69,0.00,,,0.00,WUHU216HW,2013-09-16 23:46:00,
2013-09-16 19:51:00,55.8,46.3,30.13,NE,45,1.1,2.5,70,0.00,,,0.00,WUHU216HW,2013-09-16 23:51:00,
2013-09-16 19:56:00,55.3,45.7,30.14,NW,315,0.7,2.7,70,0.00,,,0.00,WUHU216HW,2013-09-16 23:56:00,
2013-09-16 20:01:00,54.9,44.6,30.14,WNW,293,1.1,3.1,68,0.00,,,0.00,WUHU216HW,2013-09-17 00:01:00,
2013-09-16 20:06:00,54.5,44.2,30.14,WSW,248,1.1,3.1,68,0.00,,,0.00,WUHU216HW,2013-09-17 00:06:00,
2013-09-16 20:11:00,54.4,42.0,30.15,WNW,293,2.0,2.5,63,0.00,,,0.00,WUHU216HW,2013-09-17 00:11:00,
2013-09-16 20:16:00,54.0,41.2,30.15,WNW,293,1.1,3.8,62,0.00,,,0.00,WUHU216HW,2013-09-17 00:16:00,
2013-09-16 20:21:00,53.8,41.5,30.15,NNW,338,2.5,3.8,63,0.00,,,0.00,WUHU216HW,2013-09-17 00:21:00,
2013-09-16 20:26:00,53.5,40.8,30.16,WNW,293,0.7,3.8,62,0.00,,,0.00,WUHU216HW,2013-09-17 00:26:00,
2013-09-16 20:31:00,53.3,40.6,30.16,NNW,338,1.3,3.4,62,0.00,,,0.00,WUHU216HW,2013-09-17 00:31:00,
2013-09-16 20:36:00,52.9,40.6,30.16,WSW,248,0.9,3.4,63,0.00,,,0.00,WUHU216HW,2013-09-17 00:36:00,
2013-09-16 20:41:00,52.7,40.1,30.16,NNW,338,0.9,2.5,62,0.00,,,0.00,WUHU216HW,2013-09-17 00:41:00,
2013-09-16 20:46:00,52.4,40.2,30.17,ENE,68,2.2,2.2,63,0.00,,,0.00,WUHU216HW,2013-09-17 00:46:00,
2013-09-16 20:51:00,52.2,40.0,30.17,NNW,338,0.4,4.0,63,0.00,,,0.00,WUHU216HW,2013-09-17 00:51:00,